Time;durP1;ratioP1;P1;durP2;ratioP2;P2;SDS_P1;SDS_P2;PMS_P1;PMS_P2;Temp;Humidity;BMP_temperature;BMP_pressure;BME280_temperature;BME280_humidity;BME280_pressure;Samples;Min_cycle;Max_cycle;Signal;HPM_P1;HPM_P2
2022/09/04 00:02:42;;;;;;;2.50;1.32;;;;;;;14.76;47.65;101456.49;1682705;84;21551;-73
2022/09/04 00:05:47;;;;;;;3.20;1.30;;;;;;;14.69;47.73;101458.80;1675423;83;21145;-73
2022/09/04 00:09:03;;;;;;;6.60;1.30;;;;;;;14.68;47.85;101457.09;1566403;82;9999877;-73
2022/09/04 00:12:07;;;;;;;2.20;1.20;;;;;;;14.66;47.87;101454.52;1668577;83;21570;-72
2022/09/04 00:15:00;;;;;;;3.52;1.57;;;;;;;14.62;47.94;101447.65;1663899;85;21709;-73
2022/09/04 00:17:54;;;;;;;6.12;1.00;;;;;;;14.61;48.04;101448.54;1677070;85;21066;-73
2022/09/04 00:20:59;;;;;;;4.53;1.00;;;;;;;14.60;48.06;101449.42;1626133;85;21098;-73
2022/09/04 00:24:03;;;;;;;2.75;1.10;;;;;;;14.53;48.11;101451.31;1658992;83;21130;-73
2022/09/04 00:27:12;;;;;;;2.35;1.10;;;;;;;14.52;48.17;101448.75;1682165;85;21110;-72
2022/09/04 00:30:10;;;;;;;2.50;1.20;;;;;;;14.49;48.25;101450.96;1662369;83;21086;-72
2022/09/04 00:33:09;;;;;;;1.87;1.10;;;;;;;14.47;48.30;101451.88;1672793;85;21118;-72
2022/09/04 00:35:58;;;;;;;6.22;1.47;;;;;;;14.47;48.33;101455.78;1657758;85;21610;-72
2022/09/04 00:38:53;;;;;;;2.08;1.17;;;;;;;14.43;48.39;101453.67;1681378;82;21126;-73
2022/09/04 00:41:53;;;;;;;1.87;1.20;;;;;;;14.39;48.47;101448.08;1679331;83;21125;-73
2022/09/04 00:45:05;;;;;;;2.92;1.17;;;;;;;14.36;48.52;101448.58;1672114;83;21106;-73
2022/09/04 00:48:16;;;;;;;1.30;1.20;;;;;;;14.31;48.57;101446.05;1676601;85;21051;-73
2022/09/04 00:51:22;;;;;;;3.05;1.05;;;;;;;14.25;48.65;101444.87;1671762;83;21118;-73
2022/09/04 00:54:53;;;;;;;1.50;1.10;;;;;;;14.15;48.72;101444.17;1651087;85;21574;-73
2022/09/04 00:57:52;;;;;;;1.80;1.57;;;;;;;14.09;48.79;101448.62;1529312;83;5001117;-73
2022/09/04 01:00:37;;;;;;;1.57;1.07;;;;;;;13.98;48.89;101445.37;1655281;84;20988;-73
2022/09/04 01:03:45;;;;;;;1.80;1.12;;;;;;;13.90;48.96;101447.66;1652022;84;21117;-72
2022/09/04 01:06:54;;;;;;;2.98;1.20;;;;;;;13.81;48.98;101443.90;1652443;84;21054;-73
2022/09/04 01:10:07;;;;;;;5.95;1.30;;;;;;;13.71;49.13;101445.37;1653954;83;21105;-73
2022/09/04 01:13:15;;;;;;;2.33;1.32;;;;;;;13.70;49.20;101447.55;1671770;83;21078;-73
2022/09/04 01:16:14;;;;;;;1.15;0.98;;;;;;;13.64;49.25;101443.74;1657636;84;21067;-72
2022/09/04 01:19:27;;;;;;;2.52;1.20;;;;;;;13.62;49.35;101449.41;1665017;85;21089;-72
2022/09/04 01:22:20;;;;;;;2.75;1.20;;;;;;;13.58;49.41;101445.55;1677973;84;21125;-73
2022/09/04 01:25:35;;;;;;;1.10;0.90;;;;;;;13.50;49.50;101450.48;1636464;85;21065;-73
2022/09/04 01:28:44;;;;;;;1.17;0.93;;;;;;;13.50;49.58;101451.77;1664915;84;21729;-73
2022/09/04 01:31:50;;;;;;;1.35;1.02;;;;;;;13.44;49.63;101447.97;1665169;83;20980;-72
2022/09/04 01:35:01;;;;;;;2.00;1.20;;;;;;;13.45;49.69;101451.84;1700104;84;21041;-72
2022/09/04 01:38:15;;;;;;;2.77;1.20;;;;;;;13.44;49.79;101446.23;1672036;84;21100;-72
2022/09/04 01:41:09;;;;;;;2.05;1.50;;;;;;;13.37;49.83;101457.58;1698698;83;21312;-72
2022/09/04 01:43:55;;;;;;;1.87;1.10;;;;;;;13.34;49.93;101447.67;1694968;84;21366;-73
2022/09/04 01:47:12;;;;;;;3.60;1.25;;;;;;;13.32;50.01;101452.03;1699601;84;21048;-73
2022/09/04 01:50:08;;;;;;;2.17;1.22;;;;;;;13.30;50.07;101448.59;1622825;85;21120;-72
2022/09/04 01:53:13;;;;;;;2.15;1.20;;;;;;;13.30;50.15;101457.25;1627278;85;22445;-72
2022/09/04 01:56:15;;;;;;;2.90;1.40;;;;;;;13.27;50.20;101463.78;1627588;86;21107;-73
2022/09/04 01:59:08;;;;;;;14.68;1.50;;;;;;;13.25;50.30;101468.14;1625032;86;21104;-72
2022/09/04 02:02:01;;;;;;;13.53;2.30;;;;;;;13.21;50.37;101468.62;1626755;86;21136;-73
2022/09/04 02:05:12;;;;;;;2.02;1.40;;;;;;;13.19;50.45;101462.59;1613294;86;21132;-73
2022/09/04 02:08:06;;;;;;;3.00;1.12;;;;;;;13.16;50.53;101457.87;1613886;86;21092;-73
2022/09/04 02:11:11;;;;;;;1.60;1.30;;;;;;;13.15;50.62;101464.77;1628964;86;21732;-72
2022/09/04 02:14:16;;;;;;;1.67;1.17;;;;;;;13.11;50.71;101459.20;1629926;86;21739;-73
2022/09/04 02:17:20;;;;;;;1.13;1.00;;;;;;;13.08;50.80;101459.23;1626624;86;21156;-73
2022/09/04 02:20:22;;;;;;;1.82;1.60;;;;;;;13.07;50.85;101457.52;1646305;84;21061;-73
2022/09/04 02:23:12;;;;;;;2.05;1.15;;;;;;;13.04;50.98;101456.70;1674013;84;21170;-73
2022/09/04 02:26:16;;;;;;;4.47;1.10;;;;;;;13.02;50.99;101454.12;1668262;84;21104;-72
2022/09/04 02:29:09;;;;;;;2.87;1.52;;;;;;;12.99;51.15;101458.52;1668480;84;21054;-73
2022/09/04 02:32:18;;;;;;;1.72;1.05;;;;;;;12.96;51.28;101455.96;1677422;84;21064;-73
2022/09/04 02:35:23;;;;;;;2.35;1.30;;;;;;;12.90;51.39;101462.95;1681499;82;21091;-72
2022/09/04 02:38:32;;;;;;;5.00;1.27;;;;;;;12.87;51.32;101458.23;1669733;83;21056;-73
2022/09/04 02:41:49;;;;;;;4.35;1.30;;;;;;;12.83;51.41;101463.03;1664110;84;21464;-72
2022/09/04 02:45:18;;;;;;;2.02;1.30;;;;;;;12.86;51.51;101469.48;1669682;84;21097;-73
2022/09/04 02:48:23;;;;;;;2.50;1.57;;;;;;;12.84;51.53;101476.44;1685646;83;21112;-72
2022/09/04 02:51:41;;;;;;;3.43;1.30;;;;;;;12.78;51.58;101474.77;1672103;84;21133;-73
2022/09/04 02:54:53;;;;;;;1.47;1.20;;;;;;;12.71;51.69;101475.70;1627755;86;21373;-72
2022/09/04 02:58:05;;;;;;;3.17;1.45;;;;;;;12.70;51.76;101477.88;1629647;85;21133;-73
2022/09/04 03:01:03;;;;;;;3.17;1.47;;;;;;;12.69;51.83;101477.90;1623992;85;21160;-73
2022/09/04 03:04:13;;;;;;;1.77;1.27;;;;;;;12.66;51.91;101477.93;1627028;86;21451;-73
2022/09/04 03:07:31;;;;;;;3.72;1.30;;;;;;;12.66;51.97;101471.00;1620926;86;21117;-73
2022/09/04 03:10:24;;;;;;;1.50;1.22;;;;;;;12.64;51.98;101467.57;1635469;85;21074;-73
2022/09/04 03:13:29;;;;;;;3.10;1.22;;;;;;;12.56;52.05;101468.09;1634015;85;21093;-73
2022/09/04 03:16:39;;;;;;;3.08;1.85;;;;;;;12.52;52.15;101467.26;1608650;85;21157;-73
2022/09/04 03:19:44;;;;;;;4.95;1.40;;;;;;;12.46;52.23;101469.09;1634600;85;21227;-73
2022/09/04 03:22:37;;;;;;;2.45;1.30;;;;;;;12.39;52.32;101464.39;1665489;83;347007;-73
2022/09/04 03:25:54;;;;;;;1.82;1.42;;;;;;;12.35;52.40;101462.70;1677867;83;21054;-72
2022/09/04 03:29:16;;;;;;;3.08;1.60;;;;;;;12.33;52.45;101469.64;1722803;81;21502;-73
2022/09/04 03:32:40;;;;;;;2.62;1.10;;;;;;;12.28;52.51;101463.64;1726578;81;21598;-72
2022/09/04 03:35:55;;;;;;;3.55;1.42;;;;;;;12.26;52.58;101457.60;1706190;80;21114;-72
2022/09/04 03:39:03;;;;;;;2.98;1.70;;;;;;;12.22;52.64;101468.88;1716310;82;21835;-73
2022/09/04 03:42:11;;;;;;;3.65;1.57;;;;;;;12.19;52.68;101474.09;1716765;81;21498;-73
2022/09/04 03:45:16;;;;;;;2.15;1.45;;;;;;;12.15;52.75;101474.55;1663857;82;21126;-75
2022/09/04 03:48:09;;;;;;;1.95;1.12;;;;;;;12.13;52.79;101467.66;1708765;81;21038;-75
2022/09/04 03:51:24;;;;;;;3.37;1.32;;;;;;;12.10;52.80;101476.33;1722570;81;21047;-75
2022/09/04 03:54:44;;;;;;;3.37;1.25;;;;;;;12.02;52.90;101474.23;1705085;82;20979;-75
2022/09/04 03:57:37;;;;;;;1.30;1.20;;;;;;;11.97;53.09;101479.03;1715525;81;20958;-75
2022/09/04 04:12:58;;;;;;;2.10;1.80;;;;;;;12.19;55.34;101481.87;1791214;79;23353;-72
2022/09/04 04:16:03;;;;;;;3.60;2.08;;;;;;;12.10;54.82;101485.39;1740114;81;21488;-72
2022/09/04 04:19:09;;;;;;;3.55;2.10;;;;;;;12.06;54.62;101489.33;1729390;81;20985;-72
2022/09/04 04:22:13;;;;;;;1.77;1.37;;;;;;;12.00;54.54;101490.66;1748377;80;20970;-72
2022/09/04 04:25:40;;;;;;;1.93;1.47;;;;;;;11.88;54.54;101488.63;1726638;81;21045;-73
2022/09/04 04:29:01;;;;;;;1.67;1.57;;;;;;;11.82;54.59;101496.44;1720927;81;20970;-73
2022/09/04 04:32:16;;;;;;;2.12;1.77;;;;;;;11.78;54.58;101497.33;1742892;81;21006;-73
2022/09/04 04:35:28;;;;;;;3.33;1.65;;;;;;;11.72;54.58;101499.06;1703049;83;21055;-73
2022/09/04 04:38:25;;;;;;;2.50;1.70;;;;;;;11.70;54.69;101504.70;1691678;82;21000;-73
2022/09/04 04:42:02;;;;;;;6.28;1.70;;;;;;;11.56;54.71;101511.25;1691103;83;21531;-73
2022/09/04 04:48:06;;;;;;;6.53;1.47;;;;;;;11.52;54.85;101511.70;1694203;83;21642;-73
2022/09/04 04:51:12;;;;;;;9.15;1.72;;;;;;;11.57;54.90;101519.02;1711150;83;21003;-72
2022/09/04 04:54:43;;;;;;;3.83;1.83;;;;;;;11.57;54.93;101516.42;1635311;85;21077;-73
2022/09/04 04:58:04;;;;;;;3.35;2.33;;;;;;;11.57;55.02;101522.04;1638873;85;21113;-73
2022/09/04 05:00:57;;;;;;;2.70;1.80;;;;;;;11.60;55.09;101533.67;1630934;86;21203;-73
2022/09/04 05:04:09;;;;;;;2.52;1.95;;;;;;;11.64;55.14;101534.52;1630757;86;21067;-73
2022/09/04 05:07:06;;;;;;;3.70;1.67;;;;;;;11.67;55.21;101540.55;1628632;87;21271;-73
2022/09/04 05:09:59;;;;;;;2.85;2.00;;;;;;;11.72;55.26;101543.11;1611259;88;21631;-72
2022/09/04 05:13:15;;;;;;;1.70;1.60;;;;;;;11.77;55.32;101540.95;1671082;84;21496;-73
2022/09/04 05:16:46;;;;;;;2.08;1.40;;;;;;;11.89;55.36;101543.91;1660826;85;22260;-73
2022/09/04 05:19:35;;;;;;;3.55;1.60;;;;;;;12.02;55.40;101539.47;1658561;85;21049;-73
2022/09/04 05:22:38;;;;;;;2.42;1.85;;;;;;;12.15;55.46;101538.52;1647294;86;21369;-73
2022/09/04 05:25:36;;;;;;;3.15;1.77;;;;;;;12.28;55.55;101542.73;1595784;85;21593;-73
2022/09/04 05:28:27;;;;;;;2.77;1.80;;;;;;;12.42;55.61;101540.88;1658124;84;20994;-72
2022/09/04 05:31:23;;;;;;;4.78;1.70;;;;;;;12.53;55.58;101546.80;1647254;86;21107;-72
2022/09/04 05:35:05;;;;;;;2.95;1.80;;;;;;;12.67;55.65;101551.01;1659746;86;21589;-72
2022/09/04 05:38:27;;;;;;;2.20;2.00;;;;;;;12.85;55.74;101552.13;1656750;86;21391;-72
2022/09/04 05:41:19;;;;;;;3.42;2.15;;;;;;;13.10;55.77;101552.70;1660131;84;21601;-73
2022/09/04 05:44:27;;;;;;;5.08;1.92;;;;;;;13.18;55.72;101560.86;1658921;85;21561;-73
2022/09/04 05:48:00;;;;;;;5.05;1.92;;;;;;;13.35;55.86;101555.90;1656759;84;21176;-73
2022/09/04 05:51:24;;;;;;;5.25;2.20;;;;;;;13.52;55.81;101559.11;1653906;86;21074;-73
2022/09/04 05:54:32;;;;;;;2.47;1.80;;;;;;;13.76;55.98;101560.09;1658656;86;21097;-73
2022/09/04 05:57:37;;;;;;;2.42;2.22;;;;;;;14.15;55.92;101560.36;1642815;85;21074;-72
2022/09/04 06:00:22;;;;;;;2.77;1.90;;;;;;;14.42;55.89;101561.25;1659857;85;21073;-73
2022/09/04 06:03:40;;;;;;;4.97;1.85;;;;;;;14.56;55.93;101564.45;1642301;86;21114;-73
2022/09/04 06:06:39;;;;;;;3.65;1.90;;;;;;;14.55;55.84;101570.58;1617615;86;20983;-73
2022/09/04 06:09:57;;;;;;;6.30;2.08;;;;;;;14.68;55.93;101572.48;1638076;86;21109;-73
2022/09/04 06:13:07;;;;;;;3.10;2.02;;;;;;;15.00;56.10;101569.75;1641507;85;21132;-73
2022/09/04 06:16:09;;;;;;;3.95;1.98;;;;;;;15.76;56.16;101576.84;1649080;86;21091;-73
2022/09/04 06:19:21;;;;;;;2.12;1.80;;;;;;;16.48;56.22;101578.59;1663218;86;21091;-73
2022/09/04 06:22:21;;;;;;;3.87;1.90;;;;;;;17.27;56.13;101583.89;1703666;84;21080;-73
2022/09/04 06:25:33;;;;;;;3.22;1.75;;;;;;;17.96;56.04;101590.12;1701576;82;21459;-73
2022/09/04 06:28:32;;;;;;;3.25;2.12;;;;;;;18.69;55.80;101593.44;1700608;84;21071;-73
2022/09/04 06:31:25;;;;;;;3.15;2.27;;;;;;;19.43;55.50;101595.10;1679418;84;20965;-74
2022/09/04 06:34:41;;;;;;;1.82;1.72;;;;;;;20.08;55.31;101589.95;1677346;84;21688;-73
2022/09/04 06:37:52;;;;;;;2.30;2.10;;;;;;;20.66;54.93;101595.91;1606576;84;21151;-73
2022/09/04 06:41:09;;;;;;;2.08;1.72;;;;;;;21.28;54.76;101594.50;1694973;83;21077;-73
2022/09/04 06:44:26;;;;;;;4.62;1.90;;;;;;;21.69;54.23;101602.26;1692158;84;21472;-73
2022/09/04 06:47:55;;;;;;;2.80;2.10;;;;;;;22.07;54.21;101597.82;1699098;84;21590;-73
2022/09/04 06:50:55;;;;;;;2.62;2.17;;;;;;;22.58;53.97;101602.75;1700644;84;21083;-73
2022/09/04 06:54:09;;;;;;;4.80;2.25;;;;;;;23.14;53.76;101602.94;1699114;84;21068;-73
2022/09/04 06:57:03;;;;;;;5.83;2.22;;;;;;;23.50;53.18;101587.75;1704346;83;21076;-73
2022/09/04 07:00:02;;;;;;;4.67;2.02;;;;;;;24.10;53.27;101615.20;1703677;83;21009;-73
2022/09/04 07:03:28;;;;;;;2.70;2.33;;;;;;;24.72;52.90;101622.63;1690034;81;21048;-73
2022/09/04 07:06:57;;;;;;;2.60;2.22;;;;;;;25.38;52.57;101625.27;1688006;82;21060;-73
2022/09/04 07:09:50;;;;;;;4.25;2.30;;;;;;;26.09;52.23;101626.93;1681440;84;21064;-73
2022/09/04 07:13:20;;;;;;;3.98;1.98;;;;;;;26.82;51.98;101622.90;1698785;82;20944;-73
2022/09/04 07:16:29;;;;;;;3.58;2.47;;;;;;;27.43;51.55;101625.30;1680914;84;21017;-74
2022/09/04 07:19:55;;;;;;;6.53;2.52;;;;;;;27.59;50.99;101633.03;1693566;84;21048;-74
2022/09/04 07:23:01;;;;;;;3.75;2.20;;;;;;;27.63;50.37;101643.33;1688536;84;20956;-74
2022/09/04 07:26:08;;;;;;;;;;;;;;;27.92;49.69;101638.58;1691851;84;21037;-73
2022/09/04 07:29:05;;;;;;;3.52;2.30;;;;;;;27.96;48.84;101640.53;1700360;84;20479;-73
2022/09/04 07:32:23;;;;;;;12.40;2.83;;;;;;;28.08;48.68;101642.27;1691850;82;21045;-73
2022/09/04 07:35:31;;;;;;;8.80;2.83;;;;;;;27.98;48.49;101643.45;1696438;84;21077;-73
2022/09/04 07:38:50;;;;;;;3.55;2.52;;;;;;;28.22;47.90;101650.12;1684920;84;21781;-73
2022/09/04 07:41:50;;;;;;;5.35;2.72;;;;;;;28.63;47.13;101651.00;1699434;84;21088;-73
2022/09/04 07:45:12;;;;;;;2.45;2.30;;;;;;;29.06;46.27;101646.42;1699876;84;21087;-73
2022/09/04 07:48:08;;;;;;;3.15;1.90;;;;;;;28.90;46.07;101648.08;1682561;84;21102;-73
2022/09/04 07:51:03;;;;;;;2.42;2.22;;;;;;;28.61;45.78;101652.08;1692104;82;21103;-73
2022/09/04 07:54:17;;;;;;;5.42;2.40;;;;;;;28.64;45.15;101646.52;1684857;84;21794;-73
2022/09/04 07:57:25;;;;;;;3.20;2.50;;;;;;;28.42;44.87;101653.12;1698857;84;20921;-73
2022/09/04 08:00:21;;;;;;;3.40;2.72;;;;;;;28.74;44.27;101659.50;1657204;85;20953;-73
2022/09/04 08:03:45;;;;;;;3.30;2.55;;;;;;;29.66;43.24;101661.20;1697896;84;20937;-73
2022/09/04 08:06:47;;;;;;;5.30;3.23;;;;;;;30.79;42.65;101666.57;1596827;88;21512;-73
2022/09/04 08:09:43;;;;;;;3.85;2.85;;;;;;;31.94;42.03;101630.16;1691966;83;21300;-74
2022/09/04 08:12:55;;;;;;;4.62;2.67;;;;;;;33.27;41.29;101666.86;1700944;84;20913;-74
2022/09/04 08:16:06;;;;;;;2.77;2.52;;;;;;;33.90;40.64;101675.04;1693759;84;20913;-73
2022/09/04 08:19:16;;;;;;;3.10;2.58;;;;;;;34.65;40.28;101676.95;1682061;84;20910;-73
2022/09/04 08:22:03;;;;;;;2.80;2.60;;;;;;;35.42;39.67;101676.12;1683125;84;21069;-74
2022/09/04 08:25:09;;;;;;;5.92;2.90;;;;;;;36.27;39.24;101676.94;1683448;84;21112;-74
2022/09/04 08:28:23;;;;;;;7.50;3.08;;;;;;;36.83;38.59;101682.00;1693971;84;21559;-73
2022/09/04 08:31:23;;;;;;;5.50;3.20;;;;;;;37.25;38.23;101679.06;1690814;84;21614;-73
2022/09/04 08:34:39;;;;;;;3.55;2.90;;;;;;;37.52;37.66;101680.45;1689264;84;21076;-74
2022/09/04 08:37:55;;;;;;;3.52;3.22;;;;;;;37.81;37.24;101690.14;1686114;84;21519;-74
2022/09/04 08:40:49;;;;;;;2.65;2.45;;;;;;;37.53;36.37;101687.54;1695160;84;21448;-74
2022/09/04 08:44:06;;;;;;;5.92;2.45;;;;;;;35.08;37.02;101685.01;1670828;83;182234;-74
2022/09/04 08:47:16;;;;;;;4.85;2.45;;;;;;;33.12;37.31;101681.22;1687405;82;21099;-74
2022/09/04 08:50:26;;;;;;;2.98;2.40;;;;;;;31.40;37.07;101687.55;1685650;84;21087;-73
2022/09/04 08:53:56;;;;;;;3.92;2.60;;;;;;;30.04;36.99;101684.83;1682995;84;21969;-73
2022/09/04 08:57:25;;;;;;;3.47;2.65;;;;;;;28.91;36.72;101683.55;1671134;83;21096;-74
2022/09/04 09:00:39;;;;;;;5.30;2.87;;;;;;;27.74;36.54;101680.25;1679658;84;21102;-73
2022/09/04 09:03:57;;;;;;;6.35;2.70;;;;;;;26.84;36.34;101684.69;1680183;83;21584;-74
2022/09/04 09:07:24;;;;;;;3.55;2.62;;;;;;;25.98;36.16;101684.64;1680860;84;21467;-73
2022/09/04 09:10:48;;;;;;;4.85;2.50;;;;;;;25.22;36.09;101681.42;1601715;87;21097;-73
2022/09/04 09:14:08;;;;;;;5.80;2.60;;;;;;;24.57;36.11;101683.03;1648055;85;21053;-74
2022/09/04 09:17:32;;;;;;;4.02;2.48;;;;;;;23.93;36.15;101689.74;1616183;82;10000240;-73
2022/09/04 09:20:43;;;;;;;3.87;2.80;;;;;;;23.37;36.20;101684.41;1678603;84;21547;-73
2022/09/04 09:23:59;;;;;;;3.40;2.40;;;;;;;23.00;36.41;101683.66;1671934;85;21048;-73
2022/09/04 09:27:11;;;;;;;3.85;2.42;;;;;;;22.64;36.50;101687.66;1676766;84;21130;-73
2022/09/04 09:30:17;;;;;;;4.78;2.58;;;;;;;22.35;36.65;101684.30;1682882;84;21524;-73
2022/09/04 09:33:17;;;;;;;5.72;2.47;;;;;;;22.13;36.82;101688.41;1678319;83;21436;-73
2022/09/04 09:36:35;;;;;;;3.30;2.55;;;;;;;21.96;36.92;101687.84;1663137;83;21063;-73
2022/09/04 09:39:47;;;;;;;6.17;2.90;;;;;;;21.73;37.06;101683.66;1659710;83;21611;-73
2022/09/04 09:42:43;;;;;;;2.83;2.55;;;;;;;21.49;37.28;101679.49;1657130;83;21103;-73
2022/09/04 09:46:11;;;;;;;2.77;2.22;;;;;;;21.22;37.50;101675.47;1682930;83;21013;-73
2022/09/04 09:49:26;;;;;;;4.22;2.37;;;;;;;21.11;37.85;101673.27;1682896;83;21060;-73
2022/09/04 09:52:42;;;;;;;5.78;3.00;;;;;;;21.09;37.95;101680.37;1672232;84;22097;-73
2022/09/04 09:56:21;;;;;;;6.00;2.60;;;;;;;21.01;38.36;101682.01;1669377;84;21035;-73
2022/09/04 09:59:35;;;;;;;3.58;2.60;;;;;;;20.92;38.45;101694.23;1620244;87;21080;-73
2022/09/04 10:02:40;;;;;;;3.20;2.80;;;;;;;20.93;38.79;101700.34;1683316;83;21503;-73
2022/09/04 10:05:58;;;;;;;4.45;2.45;;;;;;;20.91;39.08;101690.34;1672970;83;21041;-73
2022/09/04 10:08:54;;;;;;;6.67;2.87;;;;;;;20.88;39.13;101682.59;1661271;85;21050;-73
2022/09/04 10:12:23;;;;;;;4.67;2.58;;;;;;;20.87;39.28;101684.81;1672993;85;21121;-73
2022/09/04 10:15:47;;;;;;;4.97;2.52;;;;;;;20.87;39.51;101683.50;1663068;83;20985;-73
2022/09/04 10:18:52;;;;;;;2.80;2.30;;;;;;;20.84;40.23;101667.40;1670559;85;20993;-73
2022/09/04 10:22:17;;;;;;;5.95;2.65;;;;;;;20.84;39.86;101667.40;1673540;85;21491;-73
2022/09/04 10:25:29;;;;;;;3.42;2.60;;;;;;;20.97;40.21;101668.59;1658974;85;21117;-73
2022/09/04 10:28:56;;;;;;;5.78;2.58;;;;;;;21.03;40.15;101664.85;1660492;85;20996;-73
2022/09/04 10:31:50;;;;;;;;;;;;;;;21.07;40.37;101662.02;1653628;85;21091;-73
2022/09/04 10:34:57;;;;;;;5.05;2.87;;;;;;;21.09;41.02;101660.64;1667843;85;20183;-73
2022/09/04 10:38:21;;;;;;;3.65;2.42;;;;;;;21.09;40.68;101659.33;1671990;85;21093;-73
2022/09/04 10:41:54;;;;;;;8.73;4.25;;;;;;;21.07;40.76;101661.17;1671415;83;21268;-73
2022/09/04 10:44:47;;;;;;;3.75;2.92;;;;;;;21.10;40.91;101660.58;1647360;83;21081;-72
2022/09/04 10:47:52;;;;;;;3.80;2.95;;;;;;;21.12;41.08;101660.05;1669429;83;21097;-77
2022/09/04 10:50:45;;;;;;;4.35;2.70;;;;;;;21.28;41.26;101664.68;1597778;88;21662;-75
2022/09/04 10:53:51;;;;;;;7.20;2.55;;;;;;;21.31;41.20;101664.09;1670214;84;21085;-74
2022/09/04 10:56:50;;;;;;;3.10;2.75;;;;;;;21.29;41.25;101659.81;1666738;85;21061;-74
2022/09/04 10:59:56;;;;;;;7.10;3.15;;;;;;;21.28;41.31;101667.31;1657524;85;21099;-74
2022/09/04 11:03:39;;;;;;;4.05;3.02;;;;;;;21.27;41.44;101658.56;1660349;84;25275;-74
2022/09/04 11:07:12;;;;;;;3.25;2.80;;;;;;;21.27;41.49;101661.66;1676995;83;21046;-74
2022/09/04 11:10:23;;;;;;;5.80;3.25;;;;;;;21.36;41.60;101654.19;1654760;84;21089;-74
2022/09/04 11:13:30;;;;;;;4.58;3.20;;;;;;;21.49;41.61;101655.81;1660752;84;21193;-74
2022/09/04 11:16:40;;;;;;;5.47;3.15;;;;;;;21.57;41.66;101655.00;1665786;85;21050;-74
2022/09/04 11:20:11;;;;;;;3.30;2.77;;;;;;;21.55;41.77;101658.62;1680428;84;21049;-74
2022/09/04 11:23:45;;;;;;;3.58;2.92;;;;;;;21.52;41.80;101658.77;1668434;85;21150;-75
2022/09/04 11:26:44;;;;;;;4.87;2.45;;;;;;;21.52;41.79;101653.50;1670577;84;21061;-74
2022/09/04 11:30:01;;;;;;;5.92;3.45;;;;;;;21.50;41.88;101649.63;1671381;82;21077;-74
2022/09/04 11:33:24;;;;;;;3.27;2.60;;;;;;;21.57;41.99;101644.48;1670242;84;21121;-74
2022/09/04 11:36:38;;;;;;;4.53;2.83;;;;;;;21.68;42.08;101650.57;1670386;84;21628;-74
2022/09/04 11:39:43;;;;;;;6.10;2.92;;;;;;;21.74;41.99;101648.52;1668762;84;21528;-74
2022/09/04 11:42:55;;;;;;;6.45;2.37;;;;;;;21.76;41.93;101647.98;1666596;84;21565;-73
2022/09/04 11:46:05;;;;;;;4.53;2.70;;;;;;;21.75;41.97;101644.95;1666675;84;21553;-73
2022/09/04 11:49:18;;;;;;;7.25;2.80;;;;;;;21.77;42.00;101648.38;1670596;84;21109;-74
2022/09/04 11:52:17;;;;;;;3.20;2.55;;;;;;;21.80;41.91;101646.91;1666654;84;21137;-73
2022/09/04 11:55:25;;;;;;;4.70;2.77;;;;;;;21.73;41.73;101652.06;1667800;84;21101;-73
2022/09/04 11:58:32;;;;;;;4.20;2.12;;;;;;;21.77;41.84;101651.00;1659690;84;21057;-72
2022/09/04 12:01:34;;;;;;;2.50;2.30;;;;;;;21.88;41.86;101652.25;1666882;84;21058;-73
2022/09/04 12:04:57;;;;;;;3.92;2.60;;;;;;;22.07;41.82;101659.26;1646137;84;21105;-73
2022/09/04 12:07:56;;;;;;;2.72;2.17;;;;;;;22.21;41.76;101657.75;1682259;85;21624;-73
2022/09/04 12:11:12;;;;;;;7.15;2.58;;;;;;;22.30;41.68;101642.36;1673687;85;21594;-73
2022/09/04 12:14:22;;;;;;;;;;;;;;;22.36;41.70;101642.02;1672320;85;21104;-74
2022/09/04 12:17:36;;;;;;;4.70;2.27;;;;;;;22.36;41.56;101634.58;1658528;85;20184;-73
2022/09/04 12:20:39;;;;;;;4.17;2.70;;;;;;;22.36;41.71;101634.12;1651915;84;21560;-74
2022/09/04 12:24:02;;;;;;;4.30;2.30;;;;;;;22.42;41.78;101627.70;1670837;83;21061;-73
2022/09/04 12:27:18;;;;;;;4.70;2.60;;;;;;;22.49;41.64;101629.56;1682318;83;21065;-73
2022/09/04 12:30:30;;;;;;;;;;;;;;;22.45;41.54;101631.50;1672186;83;21094;-73
2022/09/04 12:33:36;;;;;;;4.35;2.42;;;;;;;22.33;41.17;101629.49;1607711;88;20553;-73
2022/09/04 12:36:47;;;;;;;5.63;3.00;;;;;;;22.32;41.28;101637.01;1571017;87;21092;-73
2022/09/04 12:39:51;;;;;;;3.47;2.60;;;;;;;22.28;41.15;101643.36;1616267;86;21107;-73
2022/09/04 12:42:52;;;;;;;3.17;2.47;;;;;;;22.28;41.17;101636.77;1605096;87;21104;-74
2022/09/04 12:46:11;;;;;;;6.33;2.45;;;;;;;22.25;40.97;101639.09;1608811;87;21630;-73
2022/09/04 12:49:36;;;;;;;5.65;2.45;;;;;;;22.26;41.08;101642.11;1624076;86;21295;-74
2022/09/04 12:52:52;;;;;;;3.33;2.27;;;;;;;22.30;40.93;101636.23;1631433;86;21217;-73
2022/09/04 12:55:51;;;;;;;5.33;2.50;;;;;;;22.31;40.38;101629.57;1630526;86;21685;-73
2022/09/04 12:59:06;;;;;;;5.58;2.40;;;;;;;22.36;40.74;101634.58;1635873;86;21088;-73
2022/09/04 13:02:03;;;;;;;3.30;2.35;;;;;;;22.40;40.65;101640.95;1622543;86;21113;-73
2022/09/04 13:05:27;;;;;;;3.08;2.12;;;;;;;22.44;40.46;101637.23;1619967;85;21106;-73
2022/09/04 13:08:29;;;;;;;2.08;1.80;;;;;;;22.41;40.52;101634.75;1658102;85;21109;-73
2022/09/04 13:11:34;;;;;;;2.33;2.12;;;;;;;22.46;40.45;101630.11;1681676;82;21711;-73
2022/09/04 13:14:56;;;;;;;2.58;2.27;;;;;;;22.52;40.34;101635.54;1653693;84;21080;-73
2022/09/04 13:17:49;;;;;;;5.08;2.65;;;;;;;22.55;40.19;101632.75;1674759;83;21083;-73
2022/09/04 13:21:14;;;;;;;10.45;2.37;;;;;;;22.58;40.18;101633.06;1629367;84;21065;-73
2022/09/04 13:24:26;;;;;;;3.92;2.30;;;;;;;22.58;40.15;101636.55;1679424;83;21057;-73
2022/09/04 13:27:25;;;;;;;4.08;2.27;;;;;;;22.56;40.08;101637.09;1682699;83;21579;-73
2022/09/04 13:30:24;;;;;;;2.42;2.22;;;;;;;22.49;39.99;101635.69;1681782;84;21096;-73
2022/09/04 13:33:38;;;;;;;3.58;2.52;;;;;;;22.44;40.06;101642.97;1680247;83;21052;-73
2022/09/04 13:36:58;;;;;;;2.37;2.12;;;;;;;22.40;39.93;101638.78;1672678;85;20997;-73
2022/09/04 13:39:59;;;;;;;3.95;2.15;;;;;;;22.40;39.88;101638.78;1674861;83;21549;-73
2022/09/04 13:42:53;;;;;;;2.52;2.33;;;;;;;22.44;39.90;101639.87;1670080;83;21612;-73
2022/09/04 13:45:52;;;;;;;3.92;2.75;;;;;;;22.49;39.77;101642.75;1668039;83;21633;-73
2022/09/04 13:48:44;;;;;;;10.38;2.52;;;;;;;22.48;39.64;101636.62;1681965;83;21129;-73
2022/09/04 13:51:38;;;;;;;2.67;2.40;;;;;;;22.50;39.59;101645.77;1671647;83;21320;-73
2022/09/04 13:54:34;;;;;;;2.80;2.37;;;;;;;22.47;39.56;101646.77;1678592;84;20929;-73
2022/09/04 13:57:29;;;;;;;6.37;2.58;;;;;;;22.42;39.56;101647.46;1678905;83;20925;-73
2022/09/04 14:00:15;;;;;;;4.33;2.40;;;;;;;22.42;39.58;101643.05;1685015;83;20949;-73
2022/09/04 14:03:06;;;;;;;3.17;2.65;;;;;;;22.46;39.57;101649.88;1679540;83;27099;-73
2022/09/04 14:05:52;;;;;;;4.30;2.70;;;;;;;22.51;39.54;101643.52;1684027;83;20989;-73
2022/09/04 14:08:38;;;;;;;;;;;;;;;22.53;39.56;101641.20;1676873;83;21426;-73
2022/09/04 14:11:38;;;;;;;3.77;2.20;;;;;;;22.58;39.52;101647.09;1679261;83;24560;-73
2022/09/04 14:14:58;;;;;;;6.45;2.60;;;;;;;22.60;39.51;101647.88;1675908;83;20957;-73
2022/09/04 14:17:56;;;;;;;3.02;2.10;;;;;;;22.56;39.38;101646.32;1679106;83;21402;-73
2022/09/04 14:20:57;;;;;;;6.30;2.52;;;;;;;22.49;39.32;101645.38;1658479;84;21529;-73
2022/09/04 14:24:14;;;;;;;3.08;2.40;;;;;;;22.44;39.15;101642.97;1654619;84;21105;-73
2022/09/04 14:27:18;;;;;;;6.40;3.00;;;;;;;22.45;39.24;101642.04;1651914;83;21109;-73
2022/09/04 14:30:14;;;;;;;4.95;2.67;;;;;;;22.51;39.25;101640.42;1643739;84;22211;-73
2022/09/04 14:33:38;;;;;;;2.75;2.50;;;;;;;22.55;39.19;101641.98;1657534;84;21064;-73
2022/09/04 14:36:56;;;;;;;4.87;2.63;;;;;;;22.55;39.15;101641.98;1654471;84;21112;-73
2022/09/04 14:40:11;;;;;;;2.67;2.47;;;;;;;22.56;39.16;101643.69;1655143;84;21080;-73
2022/09/04 14:43:21;;;;;;;3.40;2.72;;;;;;;22.54;39.03;101647.33;1655434;84;21524;-73
2022/09/04 14:46:17;;;;;;;5.12;2.50;;;;;;;22.50;38.98;101650.58;1654837;84;21059;-73
2022/09/04 14:49:09;;;;;;;3.20;2.83;;;;;;;22.43;39.03;101658.39;1682297;83;21076;-73
2022/09/04 14:51:55;;;;;;;3.35;3.00;;;;;;;22.34;38.97;101657.09;1661635;83;21482;-74
2022/09/04 14:54:44;;;;;;;2.37;2.20;;;;;;;22.24;38.97;101657.61;1674818;85;21112;-73